createdAt,value
2023-02-05T00:01:49.767Z,0.75
2023-02-05T00:04:18.134Z,0.95
2023-02-05T00:06:48.083Z,0.57
2023-02-05T00:09:16.600Z,0.63
2023-02-05T00:11:45.150Z,0.55
2023-02-05T00:14:13.471Z,0.40
2023-02-05T00:16:41.719Z,0.40
2023-02-05T00:19:10.041Z,1.33
2023-02-05T00:21:38.311Z,0.65
2023-02-05T00:24:08.281Z,0.80
2023-02-05T00:26:36.495Z,0.95
2023-02-05T00:29:04.860Z,0.73
2023-02-05T00:31:33.450Z,0.70
2023-02-05T00:34:01.792Z,1.15
2023-02-05T00:36:30.020Z,0.45
2023-02-05T00:38:58.285Z,2.50
2023-02-05T00:41:27.866Z,0.77
2023-02-05T00:43:56.088Z,0.75
2023-02-05T00:46:24.428Z,0.50
2023-02-05T00:48:52.701Z,0.73
2023-02-05T00:51:20.987Z,0.85
2023-02-05T00:53:49.234Z,0.85
2023-02-05T00:56:17.491Z,0.40
2023-02-05T00:58:49.902Z,0.50
2023-02-05T01:01:18.639Z,0.75
2023-02-05T01:03:46.982Z,0.80
2023-02-05T01:06:15.490Z,0.30
2023-02-05T01:08:43.746Z,0.52
2023-02-05T01:11:12.229Z,0.50
2023-02-05T01:13:40.697Z,0.38
2023-02-05T01:16:11.383Z,0.30
2023-02-05T01:18:39.690Z,0.60
2023-02-05T01:21:08.062Z,1.25
2023-02-05T01:23:36.340Z,0.50
2023-02-05T01:26:04.593Z,0.68
2023-02-05T01:28:32.887Z,0.80
2023-02-05T01:31:01.282Z,0.50
2023-02-05T01:33:30.934Z,0.45
2023-02-05T01:35:59.216Z,1.27
2023-02-05T01:38:27.559Z,0.60
2023-02-05T01:40:55.823Z,0.40
2023-02-05T01:43:24.051Z,0.95
2023-02-05T01:45:57.337Z,0.40
2023-02-05T01:48:26.891Z,0.50
2023-02-05T01:50:58.938Z,0.65
2023-02-05T01:53:28.443Z,0.68
2023-02-05T01:55:57.480Z,0.60
2023-02-05T01:58:27.835Z,0.57
2023-02-05T02:00:56.560Z,0.47
2023-02-05T02:03:27.891Z,0.40
2023-02-05T02:05:57.955Z,0.95
2023-02-05T02:08:26.431Z,1.15
2023-02-05T02:10:56.110Z,0.65
2023-02-05T02:13:25.195Z,0.57
2023-02-05T02:15:53.715Z,0.30
2023-02-05T02:18:28.343Z,0.60
2023-02-05T02:21:20.696Z,1.10
2023-02-05T02:24:00.917Z,0.35
2023-02-05T02:26:40.619Z,0.38
2023-02-05T02:29:11.506Z,0.55
2023-02-05T02:31:42.864Z,0.88
2023-02-05T02:34:13.475Z,0.30
2023-02-05T02:36:49.573Z,0.50
2023-02-05T02:39:20.619Z,0.95
2023-02-05T02:41:52.591Z,0.45
2023-02-05T02:44:26.211Z,0.32
2023-02-05T02:46:56.828Z,0.25
2023-02-05T02:49:27.420Z,0.70
2023-02-05T02:51:57.090Z,1.10
2023-02-05T02:54:26.502Z,0.30
2023-02-05T02:56:54.885Z,0.47
2023-02-05T02:59:26.263Z,0.98
2023-02-05T03:01:56.740Z,0.80
2023-02-05T03:04:26.725Z,0.73
2023-02-05T03:06:56.261Z,0.95
2023-02-05T03:09:28.790Z,0.77
2023-02-05T03:11:57.140Z,0.93
2023-02-05T03:14:26.852Z,0.75
2023-02-05T03:16:55.554Z,0.98
2023-02-05T03:19:23.859Z,0.52
2023-02-05T03:21:53.452Z,0.93
2023-02-05T03:24:21.819Z,0.40
2023-02-05T03:26:50.074Z,0.32
2023-02-05T03:29:20.253Z,0.50
2023-02-05T03:31:53.410Z,0.57
2023-02-05T03:34:25.659Z,0.82
2023-02-05T03:36:58.931Z,0.60
2023-02-05T03:39:35.704Z,0.30
2023-02-05T03:42:12.293Z,0.20
2023-02-05T03:44:48.037Z,0.40
2023-02-05T03:47:21.600Z,0.50
2023-02-05T03:49:53.731Z,0.35
2023-02-05T03:52:24.235Z,0.75
2023-02-05T03:54:58.509Z,0.40
2023-02-05T03:57:28.924Z,0.65
2023-02-05T03:59:58.016Z,0.30
2023-02-05T04:02:27.776Z,0.30
2023-02-05T04:04:56.088Z,0.55
2023-02-05T04:07:24.363Z,0.68
2023-02-05T04:09:52.669Z,0.40
2023-02-05T04:12:20.946Z,0.55
2023-02-05T04:14:49.198Z,0.45
2023-02-05T04:17:17.453Z,0.30
2023-02-05T04:19:47.108Z,0.30
2023-02-05T04:22:15.365Z,0.22
2023-02-05T04:24:43.588Z,0.60
2023-02-05T04:27:11.958Z,0.52
2023-02-05T04:29:40.161Z,1.10
2023-02-05T04:32:08.400Z,0.82
2023-02-05T04:34:36.593Z,0.40
2023-02-05T04:37:06.201Z,0.80
2023-02-05T04:39:34.469Z,0.63
2023-02-05T04:42:02.767Z,0.73
2023-02-05T04:44:31.052Z,0.68
2023-02-05T04:46:59.638Z,0.80
2023-02-05T04:49:27.983Z,1.20
2023-02-05T04:51:56.250Z,0.65
2023-02-05T04:54:25.896Z,0.30
2023-02-05T04:56:54.106Z,0.35
2023-02-05T04:59:22.658Z,0.60
2023-02-05T05:01:50.921Z,0.75
2023-02-05T05:04:19.141Z,0.43
2023-02-05T05:06:47.350Z,0.65
2023-02-05T05:09:15.585Z,0.45
2023-02-05T05:11:45.181Z,0.88
2023-02-05T05:14:13.451Z,0.75
2023-02-05T05:16:41.685Z,0.60
2023-02-05T05:19:10.142Z,0.82
2023-02-05T05:21:38.394Z,0.30
2023-02-05T05:24:06.727Z,0.60
2023-02-05T05:26:34.966Z,0.73
2023-02-05T05:29:06.235Z,0.30
2023-02-05T05:31:34.537Z,0.50
2023-02-05T05:34:02.731Z,0.30
2023-02-05T05:36:31.096Z,0.57
2023-02-05T05:39:19.838Z,0.50
2023-02-05T05:42:05.593Z,0.70
2023-02-05T05:44:35.269Z,0.32
2023-02-05T05:47:03.504Z,0.45
2023-02-05T05:49:31.741Z,0.57
2023-02-05T05:51:59.950Z,0.60
2023-02-05T05:54:28.224Z,0.50
2023-02-05T05:56:56.480Z,0.30
2023-02-05T05:59:24.804Z,0.40
2023-02-05T06:01:54.412Z,0.30
2023-02-05T06:04:22.749Z,0.30
2023-02-05T06:06:51.167Z,0.77
2023-02-05T06:09:21.563Z,1.00
2023-02-05T06:11:50.099Z,0.45
2023-02-05T06:14:18.388Z,0.50
2023-02-05T06:16:46.712Z,0.68
2023-02-05T06:19:16.450Z,0.52
2023-02-05T06:21:44.699Z,0.40
2023-02-05T06:24:13.055Z,1.20
2023-02-05T06:26:41.289Z,0.47
2023-02-05T06:29:09.587Z,0.40
2023-02-05T06:31:37.964Z,0.60
2023-02-05T06:34:06.355Z,0.93
2023-02-05T06:36:36.121Z,0.93
2023-02-05T06:42:30.250Z,0.50
2023-02-05T06:44:58.571Z,0.50
2023-02-05T06:54:23.187Z,0.30
2023-02-05T06:56:51.416Z,0.32
2023-02-05T06:59:19.671Z,1.10
2023-02-05T07:02:06.691Z,0.68
2023-02-05T07:04:35.055Z,0.40
2023-02-05T07:07:03.348Z,0.93
2023-02-05T07:09:33.013Z,1.15
2023-02-05T07:12:01.537Z,1.15
2023-02-05T07:14:31.493Z,0.50
2023-02-05T07:16:59.792Z,0.40
2023-02-05T07:19:28.175Z,0.32
2023-02-05T07:21:56.410Z,0.20
2023-02-05T07:24:24.966Z,0.50
2023-02-05T07:26:54.608Z,0.70
2023-02-05T07:29:23.062Z,0.60
2023-02-05T07:31:51.669Z,0.40
2023-02-05T07:34:20.238Z,0.50
2023-02-05T07:36:51.322Z,0.70
2023-02-05T07:39:19.648Z,0.30
2023-02-05T07:41:48.073Z,0.50
2023-02-05T07:44:17.862Z,0.32
2023-02-05T07:46:46.261Z,0.52
2023-02-05T07:49:14.571Z,0.43
2023-02-05T07:51:42.899Z,1.00
2023-02-05T07:54:12.168Z,1.10
2023-02-05T07:56:40.438Z,0.57
2023-02-05T07:59:08.815Z,0.47
2023-02-05T08:01:38.644Z,0.30
2023-02-05T08:04:06.996Z,0.50
2023-02-05T08:06:35.844Z,0.60
2023-02-05T08:09:04.287Z,0.57
2023-02-05T08:11:32.779Z,0.40
2023-02-05T08:14:02.480Z,0.30
2023-02-05T08:16:30.957Z,0.45
2023-02-05T08:19:00.800Z,0.40
2023-02-05T08:21:29.181Z,0.43
2023-02-05T08:23:58.509Z,1.17
2023-02-05T08:26:26.877Z,0.50
2023-02-05T08:28:56.606Z,1.08
2023-02-05T08:31:24.942Z,0.22
2023-02-05T08:33:55.023Z,0.40
2023-02-05T08:36:24.631Z,0.40
2023-02-05T08:38:53.141Z,0.70
2023-02-05T08:41:21.427Z,0.63
2023-02-05T08:43:51.426Z,0.57
2023-02-05T08:46:21.030Z,0.70
2023-02-05T08:48:51.414Z,1.17
2023-02-05T08:51:20.258Z,0.98
2023-02-05T08:53:49.898Z,0.80
2023-02-05T08:56:20.139Z,1.73
2023-02-05T08:58:48.590Z,0.43
2023-02-05T09:01:18.106Z,1.55
2023-02-05T09:03:46.831Z,0.88
2023-02-05T09:06:16.125Z,0.77
2023-02-05T09:08:44.598Z,0.68
2023-02-05T09:11:14.553Z,0.45
2023-02-05T09:13:42.877Z,0.65
2023-02-05T09:16:12.144Z,1.15
2023-02-05T09:18:40.624Z,0.77
2023-02-05T09:21:09.731Z,0.40
2023-02-05T09:23:38.386Z,1.35
2023-02-05T09:26:07.107Z,0.73
2023-02-05T09:28:36.995Z,0.65
2023-02-05T09:31:07.157Z,0.60
2023-02-05T09:33:35.976Z,0.70
2023-02-05T09:36:08.052Z,0.40
2023-02-05T09:38:36.379Z,0.40
2023-02-05T09:41:06.810Z,0.70
2023-02-05T09:43:43.558Z,0.73
2023-02-05T09:46:12.923Z,0.57
2023-02-05T09:48:50.405Z,0.75
2023-02-05T09:51:20.174Z,0.60
2023-02-05T09:53:50.634Z,0.82
2023-02-05T09:56:19.101Z,1.42
2023-02-05T09:58:50.394Z,0.75
2023-02-05T10:01:23.179Z,0.68
2023-02-05T10:03:54.102Z,0.52
2023-02-05T10:06:29.855Z,0.68
2023-02-05T10:09:02.436Z,0.70
2023-02-05T10:11:36.294Z,0.50
2023-02-05T10:14:09.638Z,1.63
2023-02-05T10:16:50.912Z,1.73
2023-02-05T10:19:27.739Z,0.80
2023-02-05T10:22:11.761Z,1.15
2023-02-05T10:24:50.746Z,0.68
2023-02-05T10:27:22.079Z,1.45
2023-02-05T10:29:55.301Z,1.30
2023-02-05T10:32:24.889Z,1.52
2023-02-05T10:34:59.473Z,1.38
2023-02-05T10:37:32.353Z,1.17
2023-02-05T10:40:01.504Z,1.40
2023-02-05T10:42:33.594Z,1.77
2023-02-05T10:45:06.464Z,1.70
2023-02-05T10:47:44.752Z,1.00
2023-02-05T10:50:18.134Z,0.73
2023-02-05T10:52:46.396Z,1.33
2023-02-05T10:55:15.204Z,0.82
2023-02-05T10:57:43.679Z,1.70
2023-02-05T11:00:18.153Z,1.08
2023-02-05T11:02:48.555Z,1.88
2023-02-05T11:05:18.625Z,0.70
2023-02-05T11:07:48.717Z,1.10
2023-02-05T11:10:18.033Z,1.25
2023-02-05T11:12:47.006Z,0.95
2023-02-05T11:15:22.121Z,1.27
2023-02-05T11:17:54.233Z,0.75
2023-02-05T11:20:30.566Z,0.65
2023-02-05T11:23:07.564Z,0.73
2023-02-05T11:25:35.830Z,1.13
2023-02-05T11:28:05.666Z,0.55
2023-02-05T11:30:52.668Z,1.42
2023-02-05T11:33:26.908Z,1.23
2023-02-05T11:35:56.867Z,1.00
2023-02-05T11:38:32.154Z,0.85
2023-02-05T11:41:01.719Z,1.48
2023-02-05T11:43:32.267Z,0.65
2023-02-05T11:46:03.492Z,1.00
2023-02-05T11:48:36.746Z,0.73
2023-02-05T11:51:06.671Z,0.50
2023-02-05T11:53:37.197Z,1.27
2023-02-05T11:56:08.540Z,0.40
2023-02-05T11:58:37.737Z,1.35
2023-02-05T12:01:09.768Z,0.40
2023-02-05T12:03:38.290Z,1.02
2023-02-05T12:06:13.319Z,0.85
2023-02-05T12:08:45.035Z,0.60
2023-02-05T12:11:21.833Z,0.55
2023-02-05T12:13:56.673Z,0.60
2023-02-05T12:16:37.379Z,0.65
2023-02-05T12:19:11.231Z,1.20
2023-02-05T12:21:43.544Z,0.40
2023-02-05T12:24:26.336Z,0.88
2023-02-05T12:26:58.904Z,1.50
2023-02-05T12:29:36.291Z,0.40
2023-02-05T12:32:09.152Z,0.70
2023-02-05T12:34:42.589Z,0.45
2023-02-05T12:37:25.754Z,0.40
2023-02-05T12:39:54.870Z,0.80
2023-02-05T12:42:28.006Z,0.40
2023-02-05T12:45:01.509Z,0.75
2023-02-05T12:47:41.077Z,0.82
2023-02-05T12:50:16.403Z,0.77
2023-02-05T12:52:53.223Z,0.85
2023-02-05T12:55:26.833Z,0.93
2023-02-05T12:57:56.177Z,17.38
2023-02-05T13:00:25.768Z,28.35
2023-02-05T13:02:57.426Z,18.52
2023-02-05T13:05:30.117Z,12.95
2023-02-05T13:08:01.358Z,7.47
2023-02-05T13:10:31.368Z,5.47
2023-02-05T13:13:01.939Z,4.63
2023-02-05T13:15:32.980Z,2.95
2023-02-05T13:18:04.578Z,2.33
2023-02-05T13:20:52.184Z,2.00
2023-02-05T13:23:38.174Z,2.60
2023-02-05T13:26:26.915Z,2.55
2023-02-05T13:28:57.500Z,2.10
2023-02-05T13:31:29.145Z,1.23
2023-02-05T13:34:02.588Z,2.42
2023-02-05T13:36:42.529Z,1.52
2023-02-05T13:39:22.684Z,1.10
2023-02-05T13:42:11.593Z,2.03
2023-02-05T13:44:54.487Z,1.17
2023-02-05T13:47:33.280Z,2.08
2023-02-05T13:50:17.151Z,1.52
2023-02-05T13:53:06.110Z,1.13
2023-02-05T13:55:45.660Z,1.83
2023-02-05T13:58:21.467Z,1.63
2023-02-05T14:00:55.505Z,0.93
2023-02-05T14:03:29.727Z,0.68
2023-02-05T14:05:59.690Z,1.42
2023-02-05T14:08:29.453Z,1.60
2023-02-05T14:10:59.647Z,0.80
2023-02-05T14:13:31.207Z,0.80
2023-02-05T14:16:00.590Z,0.95
2023-02-05T14:18:48.849Z,1.17
2023-02-05T14:21:35.569Z,0.88
2023-02-05T14:24:05.528Z,2.17
2023-02-05T14:26:47.991Z,1.02
2023-02-05T14:29:34.914Z,1.45
2023-02-05T14:32:03.341Z,1.27
2023-02-05T14:34:52.442Z,0.75
2023-02-05T14:37:39.801Z,0.73
2023-02-05T14:40:23.254Z,1.08
2023-02-05T14:42:53.397Z,1.60
2023-02-05T14:45:24.261Z,1.67
2023-02-05T14:47:53.549Z,1.40
2023-02-05T14:50:27.768Z,1.58
2023-02-05T14:52:58.709Z,1.40
2023-02-05T14:55:32.465Z,0.65
2023-02-05T14:58:04.468Z,1.17
2023-02-05T15:00:34.373Z,0.85
2023-02-05T15:03:21.605Z,1.08
2023-02-05T15:05:53.867Z,1.70
2023-02-05T15:08:24.731Z,1.45
2023-02-05T15:10:56.128Z,0.90
2023-02-05T15:13:26.250Z,0.77
2023-02-05T15:16:14.120Z,0.68
2023-02-05T15:18:43.137Z,0.98
2023-02-05T15:21:15.336Z,1.00
2023-02-05T15:23:46.223Z,1.10
2023-02-05T15:26:21.380Z,1.85
2023-02-05T15:28:56.338Z,0.75
2023-02-05T15:34:04.777Z,0.75
2023-02-05T15:36:36.097Z,1.27
2023-02-05T15:39:07.394Z,1.23
2023-02-05T15:41:37.504Z,1.48
2023-02-05T15:44:06.174Z,1.35
2023-02-05T15:46:35.214Z,1.30
2023-02-05T15:49:03.987Z,1.10
2023-02-05T15:51:33.771Z,1.70
2023-02-05T15:54:03.737Z,1.50
2023-02-05T15:56:35.355Z,0.80
2023-02-05T15:59:06.609Z,0.98
2023-02-05T16:01:36.347Z,1.35
2023-02-05T16:04:17.877Z,1.20
2023-02-05T16:06:46.764Z,1.00
2023-02-05T16:09:17.377Z,0.98
2023-02-05T16:11:46.211Z,0.70
2023-02-05T16:14:16.799Z,0.93
2023-02-05T16:16:47.832Z,0.95
2023-02-05T16:19:19.452Z,1.40
2023-02-05T16:21:50.009Z,1.33
2023-02-05T16:24:24.619Z,0.93
2023-02-05T16:26:57.769Z,0.82
2023-02-05T16:29:36.103Z,1.00
2023-02-05T16:32:15.989Z,1.45
2023-02-05T16:34:44.723Z,0.95
2023-02-05T16:37:16.836Z,1.10
2023-02-05T16:39:48.251Z,1.33
2023-02-05T16:42:29.037Z,0.73
2023-02-05T16:45:07.380Z,0.93
2023-02-05T16:47:36.434Z,0.95
2023-02-05T16:50:25.430Z,1.25
2023-02-05T16:52:59.320Z,1.35
2023-02-05T16:55:42.192Z,1.30
2023-02-05T16:58:17.030Z,1.38
2023-02-05T17:03:19.686Z,1.13
2023-02-05T17:05:54.370Z,1.00
2023-02-05T17:08:30.909Z,2.08
2023-02-05T17:11:01.006Z,1.10
2023-02-05T17:13:30.752Z,1.20
2023-02-05T17:15:59.269Z,1.52
2023-02-05T17:18:30.692Z,1.38
2023-02-05T17:21:32.034Z,1.40
2023-02-05T17:24:02.694Z,1.17
2023-02-05T17:26:32.666Z,1.70
2023-02-05T17:29:02.736Z,1.80
2023-02-05T17:31:32.249Z,0.70
2023-02-05T17:34:02.094Z,2.17
2023-02-05T17:36:31.015Z,1.58
2023-02-05T17:38:59.891Z,1.38
2023-02-05T17:41:56.491Z,2.40
2023-02-05T17:44:24.982Z,1.40
2023-02-05T17:46:54.462Z,1.15
2023-02-05T17:49:24.668Z,1.05
2023-02-05T17:51:53.196Z,1.38
2023-02-05T17:54:23.152Z,1.15
2023-02-05T17:56:52.153Z,1.83
2023-02-05T17:59:21.880Z,1.75
2023-02-05T18:01:51.293Z,2.22
2023-02-05T18:04:20.275Z,0.85
2023-02-05T18:06:50.627Z,1.67
2023-02-05T18:09:20.179Z,1.27
2023-02-05T18:11:49.274Z,1.27
2023-02-05T18:14:18.100Z,2.33
2023-02-05T18:16:46.722Z,1.92
2023-02-05T18:19:15.683Z,1.90
2023-02-05T18:21:47.126Z,1.27
2023-02-05T18:24:17.264Z,1.63
2023-02-05T18:26:48.375Z,1.25
2023-02-05T18:29:17.026Z,2.22
2023-02-05T18:31:46.054Z,0.88
2023-02-05T18:34:14.967Z,1.92
2023-02-05T18:36:43.529Z,1.52
2023-02-05T18:39:12.345Z,1.30
2023-02-05T18:41:42.537Z,1.33
2023-02-05T18:44:11.677Z,1.42
2023-02-05T18:46:40.896Z,1.27
2023-02-05T18:49:09.481Z,1.88
2023-02-05T18:51:38.659Z,1.17
2023-02-05T18:54:07.719Z,1.83
2023-02-05T18:56:36.456Z,1.35
2023-02-05T18:59:07.619Z,1.40
2023-02-05T19:01:38.273Z,1.25
2023-02-05T19:04:07.821Z,1.48
2023-02-05T19:06:36.280Z,2.03
2023-02-05T19:09:05.314Z,0.90
2023-02-05T19:11:40.849Z,1.88
2023-02-05T19:14:13.419Z,1.10
2023-02-05T19:16:42.315Z,1.67
2023-02-05T19:19:12.532Z,2.75
2023-02-05T19:21:41.231Z,2.25
2023-02-05T19:24:11.517Z,2.53
2023-02-05T19:26:41.985Z,1.30
2023-02-05T19:29:14.529Z,1.45
2023-02-05T19:31:43.651Z,1.10
2023-02-05T19:34:12.433Z,1.10
2023-02-05T19:36:41.509Z,1.60
2023-02-05T19:39:11.053Z,1.55
2023-02-05T19:41:40.314Z,1.48
2023-02-05T19:44:10.214Z,0.95
2023-02-05T19:46:42.019Z,1.63
2023-02-05T19:49:13.728Z,1.27
2023-02-05T19:51:42.423Z,1.13
2023-02-05T19:54:10.971Z,1.58
2023-02-05T19:56:39.861Z,1.30
2023-02-05T19:59:08.253Z,1.77
2023-02-05T20:01:38.167Z,1.35
2023-02-05T20:04:09.992Z,1.33
2023-02-05T20:06:38.871Z,1.48
2023-02-05T20:09:10.493Z,1.67
2023-02-05T20:11:39.094Z,1.38
2023-02-05T20:14:08.280Z,0.82
2023-02-05T20:16:36.976Z,0.93
2023-02-05T20:19:07.415Z,0.75
2023-02-05T20:21:37.359Z,1.40
2023-02-05T20:24:07.557Z,1.88
2023-02-05T20:26:36.229Z,0.77
2023-02-05T20:29:22.546Z,1.05
2023-02-05T20:31:52.226Z,2.05
2023-02-05T20:34:22.431Z,1.48
2023-02-05T20:36:53.446Z,1.35
2023-02-05T20:39:22.290Z,1.67
2023-02-05T20:41:51.318Z,0.65
2023-02-05T20:44:20.145Z,1.42
2023-02-05T20:46:48.866Z,2.15
2023-02-05T20:49:17.846Z,1.42
2023-02-05T20:51:46.123Z,0.98
2023-02-05T20:54:15.960Z,0.60
2023-02-05T20:56:44.253Z,1.35
2023-02-05T20:59:13.352Z,2.58
2023-02-05T21:01:41.751Z,1.17
2023-02-05T21:04:11.372Z,1.95
2023-02-05T21:06:40.845Z,0.82
2023-02-05T21:09:09.666Z,1.65
2023-02-05T21:11:39.763Z,1.23
2023-02-05T21:14:08.684Z,0.98
2023-02-05T21:16:37.537Z,1.35
2023-02-05T21:19:06.578Z,1.58
2023-02-05T21:21:36.155Z,1.25
2023-02-05T21:24:05.414Z,1.55
2023-02-05T21:26:34.566Z,1.10
2023-02-05T21:29:05.331Z,1.10
2023-02-05T21:31:34.853Z,1.52
2023-02-05T21:34:03.524Z,1.13
2023-02-05T21:36:32.453Z,1.33
2023-02-05T21:39:01.122Z,1.30
2023-02-05T21:41:29.787Z,1.35
2023-02-05T21:43:59.373Z,1.38
2023-02-05T21:46:30.412Z,0.65
2023-02-05T21:48:59.983Z,1.55
2023-02-05T21:51:28.987Z,0.95
2023-02-05T21:53:59.029Z,1.42
2023-02-05T21:56:29.351Z,0.70
2023-02-05T21:58:58.021Z,1.98
2023-02-05T22:01:27.262Z,1.55
2023-02-05T22:03:57.508Z,1.17
2023-02-05T22:06:27.033Z,0.80
2023-02-05T22:08:55.579Z,1.13
2023-02-05T22:11:24.276Z,1.33
2023-02-05T22:13:54.946Z,2.38
2023-02-05T22:16:24.103Z,1.00
2023-02-05T22:18:52.632Z,1.85
2023-02-05T22:21:23.302Z,1.05
2023-02-05T22:23:53.328Z,1.42
2023-02-05T22:26:22.774Z,1.20
2023-02-05T22:28:51.361Z,1.33
2023-02-05T22:31:20.452Z,1.05
2023-02-05T22:33:50.090Z,0.85
2023-02-05T22:36:20.635Z,1.30
2023-02-05T22:38:51.403Z,1.25
2023-02-05T22:41:21.549Z,2.10
2023-02-05T22:43:50.107Z,2.22
2023-02-05T22:46:19.588Z,1.13
2023-02-05T22:48:49.282Z,1.73
2023-02-05T22:51:18.205Z,1.30
2023-02-05T22:53:48.746Z,1.25
2023-02-05T22:56:19.058Z,2.20
2023-02-05T22:58:47.977Z,1.23
2023-02-05T23:01:17.208Z,0.82
2023-02-05T23:03:45.917Z,1.10
2023-02-05T23:06:15.718Z,0.85
2023-02-05T23:08:44.096Z,1.15
2023-02-05T23:11:14.440Z,1.50
2023-02-05T23:13:44.079Z,1.25
2023-02-05T23:16:14.013Z,1.27
2023-02-05T23:18:42.893Z,1.40
2023-02-05T23:21:11.704Z,1.10
2023-02-05T23:23:39.960Z,0.80
2023-02-05T23:26:08.918Z,0.85
2023-02-05T23:28:37.365Z,0.95
2023-02-05T23:31:07.397Z,1.70
2023-02-05T23:33:36.476Z,1.27
2023-02-05T23:36:05.474Z,1.27
2023-02-05T23:38:33.846Z,1.27
2023-02-05T23:41:02.228Z,0.98
2023-02-05T23:43:30.600Z,0.93
2023-02-05T23:45:58.878Z,0.85
2023-02-05T23:48:28.639Z,0.98
2023-02-05T23:50:57.885Z,1.98
2023-02-05T23:53:26.435Z,0.45
2023-02-05T23:55:54.928Z,1.30
2023-02-05T23:58:25.633Z,0.73
